Time;durP1;ratioP1;P1;durP2;ratioP2;P2;SDS_P1;SDS_P2;PMS_P1;PMS_P2;Temp;Humidity;BMP_temperature;BMP_pressure;BME280_temperature;BME280_humidity;BME280_pressure;Samples;Min_cycle;Max_cycle;Signal;HPM_P1;HPM_P2
2023/01/23 00:01:45;;;;;;;38.92;16.90;;;;;;;0.24;100.00;103406.84;5043239;28;20028;-74
2023/01/23 00:04:12;;;;;;;33.92;14.52;;;;;;;0.25;100.00;103411.31;5034672;28;20488;-74
2023/01/23 00:06:39;;;;;;;40.92;15.35;;;;;;;0.25;100.00;103411.31;5028970;28;20043;-74
2023/01/23 00:09:05;;;;;;;30.67;14.75;;;;;;;0.24;100.00;103398.81;5046762;28;20435;-74
2023/01/23 00:11:31;;;;;;;40.65;17.08;;;;;;;0.25;100.00;103397.03;5049455;28;20115;-74
2023/01/23 00:13:58;;;;;;;43.55;17.75;;;;;;;0.25;100.00;103403.28;5038412;28;20443;-74
2023/01/23 00:16:25;;;;;;;38.08;17.00;;;;;;;0.25;100.00;103399.72;5049135;28;20048;-74
2023/01/23 00:18:51;;;;;;;37.95;16.05;;;;;;;0.24;100.00;103398.81;5031070;28;20046;-74
2023/01/23 00:21:20;;;;;;;39.25;16.48;;;;;;;0.23;100.00;103401.47;5028524;28;20044;-74
2023/01/23 00:23:51;;;;;;;41.60;16.52;;;;;;;0.23;100.00;103410.44;5028409;28;20436;-74
2023/01/23 00:26:19;;;;;;;38.58;15.40;;;;;;;0.24;100.00;103406.84;5028989;28;20092;-74
2023/01/23 00:28:46;;;;;;;34.72;15.55;;;;;;;0.24;100.00;103406.84;5026967;28;20512;-75
2023/01/23 00:31:15;;;;;;;33.67;15.90;;;;;;;0.25;100.00;103415.78;5027870;28;20083;-74
2023/01/23 00:33:41;;;;;;;38.53;14.70;;;;;;;0.24;100.00;103414.88;5035692;28;20488;-74
2023/01/23 00:36:08;;;;;;;38.63;16.48;;;;;;;0.23;100.00;103414.84;5026569;28;20398;-74
2023/01/23 00:38:33;;;;;;;35.10;15.23;;;;;;;0.22;100.00;103421.97;5027490;28;20980;-74
2023/01/23 00:40:59;;;;;;;34.22;16.05;;;;;;;0.22;100.00;103424.66;5026920;28;20025;-74
2023/01/23 00:43:25;;;;;;;30.92;14.63;;;;;;;0.24;100.00;103422.91;5028457;28;20057;-74
2023/01/23 00:45:50;;;;;;;33.72;14.77;;;;;;;0.24;100.00;103430.06;5028127;28;20036;-74
2023/01/23 00:48:16;;;;;;;33.45;15.02;;;;;;;0.24;100.00;103433.63;5028148;28;20025;-74
2023/01/23 00:50:41;;;;;;;42.67;16.15;;;;;;;0.23;100.00;103426.50;5027970;28;20045;-74
2023/01/23 00:53:07;;;;;;;35.10;14.90;;;;;;;0.25;100.00;103438.09;5028146;28;20034;-74
2023/01/23 00:55:32;;;;;;;38.17;15.80;;;;;;;0.24;100.00;103430.06;5028144;28;20397;-74
2023/01/23 00:57:58;;;;;;;37.17;14.95;;;;;;;0.25;100.00;103430.06;5026914;28;20026;-74
2023/01/23 01:00:24;;;;;;;30.25;14.30;;;;;;;0.26;100.00;103420.25;5027856;28;20040;-74
2023/01/23 01:02:50;;;;;;;32.55;14.98;;;;;;;0.25;100.00;103418.47;5009983;28;20033;-73
2023/01/23 01:05:17;;;;;;;40.22;14.05;;;;;;;0.26;100.00;103417.56;5026458;28;20037;-74
2023/01/23 01:07:43;;;;;;;36.50;16.05;;;;;;;0.25;100.00;103416.69;5027238;28;20033;-74
2023/01/23 01:10:10;;;;;;;37.75;16.20;;;;;;;0.28;100.00;103428.28;5028640;28;20128;-74
2023/01/23 01:12:36;;;;;;;31.52;14.82;;;;;;;0.26;100.00;103425.59;5042567;28;20079;-74
2023/01/23 01:15:02;;;;;;;34.92;14.30;;;;;;;0.28;100.00;103428.28;5046327;28;20033;-74
2023/01/23 01:17:28;;;;;;;38.78;15.48;;;;;;;0.27;100.00;103427.41;5043797;28;20493;-74
2023/01/23 01:19:53;;;;;;;35.20;14.95;;;;;;;0.26;100.00;103417.56;5025944;28;20072;-74
2023/01/23 01:22:19;;;;;;;34.17;14.80;;;;;;;0.26;100.00;103422.94;5027049;28;20061;-74
2023/01/23 01:24:44;;;;;;;33.53;14.50;;;;;;;0.27;100.00;103430.06;5027652;28;20053;-75
2023/01/23 01:27:10;;;;;;;38.97;16.30;;;;;;;0.24;100.00;103422.03;5026816;28;20033;-75
2023/01/23 01:29:35;;;;;;;32.88;14.60;;;;;;;0.25;100.00;103430.06;5026090;28;20033;-74
2023/01/23 01:32:00;;;;;;;33.47;14.27;;;;;;;0.28;100.00;103436.31;5029966;28;20029;-74
2023/01/23 01:34:26;;;;;;;33.88;14.27;;;;;;;0.27;100.00;103435.44;5026682;28;20087;-74
2023/01/23 01:36:52;;;;;;;34.90;15.63;;;;;;;0.29;100.00;103438.16;5027122;28;20509;-74
2023/01/23 01:39:17;;;;;;;36.10;15.57;;;;;;;0.29;100.00;103438.16;5027467;28;20040;-74
2023/01/23 01:41:43;;;;;;;37.83;16.00;;;;;;;0.32;100.00;103448.88;5027026;28;20496;-74
2023/01/23 01:44:17;;;;;;;30.90;14.70;;;;;;;0.30;100.00;103442.63;5027382;28;20033;-74
2023/01/23 01:46:44;;;;;;;39.25;14.90;;;;;;;0.32;100.00;103447.09;5028240;28;20076;-75
2023/01/23 01:49:15;;;;;;;33.65;14.57;;;;;;;0.30;100.00;103438.16;5028294;28;20034;-74
2023/01/23 01:51:59;;;;;;;31.80;14.32;;;;;;;0.31;100.00;103439.94;5026336;28;20119;-74
2023/01/23 01:54:31;;;;;;;34.17;14.80;;;;;;;0.29;100.00;103436.34;5009772;28;20520;-74
2023/01/23 01:57:06;;;;;;;36.35;14.65;;;;;;;0.32;100.00;103435.47;5025964;28;20044;-74
2023/01/23 01:59:39;;;;;;;34.88;14.52;;;;;;;0.32;100.00;103433.69;5025957;28;20033;-74
2023/01/23 02:02:10;;;;;;;;;;;;;;;0.35;100.00;103432.84;5026082;28;20493;-75
2023/01/23 02:04:40;;;;;;;34.17;14.30;;;;;;;0.33;100.00;103431.94;5025644;28;19932;-74
2023/01/23 02:07:14;;;;;;;30.98;13.82;;;;;;;0.32;100.00;103435.47;5010064;28;20044;-75
2023/01/23 02:09:40;;;;;;;33.10;14.40;;;;;;;0.33;100.00;103434.63;5046410;28;20044;-74
2023/01/23 02:12:06;;;;;;;34.03;15.27;;;;;;;0.33;100.00;103434.63;5031918;28;20037;-74
2023/01/23 02:14:31;;;;;;;42.28;15.20;;;;;;;0.33;100.00;103431.94;5025677;28;20040;-75
2023/01/23 02:16:59;;;;;;;37.28;15.55;;;;;;;0.33;100.00;103431.94;5027117;28;20056;-74
2023/01/23 02:19:53;;;;;;;34.22;14.75;;;;;;;0.31;100.00;103434.59;5035793;28;20047;-74
2023/01/23 02:22:32;;;;;;;41.20;15.20;;;;;;;0.29;100.00;103431.00;5025022;28;20033;-75
2023/01/23 02:25:17;;;;;;;34.03;14.85;;;;;;;0.27;100.00;103430.06;5025643;28;20040;-74
2023/01/23 02:27:44;;;;;;;36.17;15.90;;;;;;;0.30;100.00;103431.91;5026250;28;20034;-75
2023/01/23 02:30:09;;;;;;;35.92;15.68;;;;;;;0.29;100.00;103435.47;5027444;28;20526;-75
2023/01/23 02:32:35;;;;;;;35.15;14.75;;;;;;;0.29;100.00;103441.72;5029846;28;20040;-75
2023/01/23 02:35:09;;;;;;;32.47;14.35;;;;;;;0.29;100.00;103438.16;5025098;28;20457;-75
2023/01/23 02:37:39;;;;;;;35.60;16.38;;;;;;;0.31;100.00;103437.25;5025401;28;20026;-75
2023/01/23 02:40:07;;;;;;;36.95;16.35;;;;;;;0.33;100.00;103439.97;5026096;28;20183;-75
2023/01/23 02:42:34;;;;;;;35.22;15.75;;;;;;;0.32;100.00;103431.03;5025156;28;20045;-75
2023/01/23 02:44:59;;;;;;;38.75;14.00;;;;;;;0.33;100.00;103429.28;5045368;28;20491;-75
2023/01/23 02:47:25;;;;;;;34.80;15.00;;;;;;;0.36;100.00;103429.28;5042767;28;20054;-75
2023/01/23 02:49:54;;;;;;;34.42;14.98;;;;;;;0.37;100.00;103431.06;5025036;28;20033;-75
2023/01/23 02:52:22;;;;;;;38.08;15.30;;;;;;;0.37;100.00;103434.66;5025212;28;20467;-75
2023/01/23 02:54:48;;;;;;;31.05;15.07;;;;;;;0.35;100.00;103431.06;5025652;28;20060;-74
2023/01/23 02:57:14;;;;;;;34.20;14.98;;;;;;;0.34;100.00;103428.38;5029464;28;20134;-75
2023/01/23 03:02:24;;;;;;;38.53;15.63;;;;;;;0.35;100.00;103432.84;5028969;28;20036;-75
2023/01/23 03:04:49;;;;;;;32.28;13.82;;;;;;;0.34;100.00;103437.31;5028826;28;20463;-75
2023/01/23 03:07:15;;;;;;;32.45;14.32;;;;;;;0.35;100.00;103440.88;5029748;28;20146;-75
2023/01/23 03:09:42;;;;;;;38.35;14.98;;;;;;;0.34;100.00;103436.41;5029595;28;20928;-75
2023/01/23 03:12:08;;;;;;;43.85;15.77;;;;;;;0.34;100.00;103436.41;5028853;28;20091;-75
2023/01/23 03:14:33;;;;;;;38.83;16.20;;;;;;;0.36;100.00;103440.00;5028692;28;20037;-75
2023/01/23 03:16:59;;;;;;;37.15;14.75;;;;;;;0.34;100.00;103441.78;5028921;28;20038;-75
2023/01/23 03:19:30;;;;;;;36.55;15.82;;;;;;;0.36;100.00;103438.22;5028171;28;20159;-75
2023/01/23 03:21:55;;;;;;;35.80;14.63;;;;;;;0.36;100.00;103438.22;5011423;28;20067;-75
2023/01/23 03:24:21;;;;;;;40.80;16.10;;;;;;;0.36;100.00;103446.25;5030203;28;20037;-75
2023/01/23 03:26:48;;;;;;;44.03;16.27;;;;;;;0.37;100.00;103447.13;5028524;28;20171;-75
2023/01/23 03:32:04;;;;;;;36.58;14.98;;;;;;;0.37;100.00;103444.47;5032666;28;20135;-75
2023/01/23 03:34:31;;;;;;;36.47;14.15;;;;;;;0.38;100.00;103447.19;5028547;28;20041;-75
2023/01/23 03:36:57;;;;;;;36.28;15.60;;;;;;;0.39;100.00;103445.41;5027803;28;20033;-76
2023/01/23 03:42:08;;;;;;;35.92;15.77;;;;;;;0.40;100.00;103455.22;5039282;28;20095;-75
2023/01/23 03:44:33;;;;;;;39.15;15.27;;;;;;;0.38;100.00;103440.94;5029372;28;20042;-75
2023/01/23 03:46:58;;;;;;;39.58;15.85;;;;;;;0.40;100.00;103447.19;5028694;28;20408;-75
2023/01/23 03:49:24;;;;;;;38.03;15.00;;;;;;;0.43;100.00;103452.59;5017645;28;20048;-75
2023/01/23 03:51:56;;;;;;;40.35;16.02;;;;;;;0.41;100.00;103440.94;5027622;28;20487;-76
2023/01/23 03:54:22;;;;;;;37.72;15.55;;;;;;;0.43;100.00;103447.22;5047430;28;20128;-75
2023/01/23 03:56:49;;;;;;;31.35;14.35;;;;;;;0.43;100.00;103455.25;5048034;28;20035;-75
2023/01/23 03:59:34;;;;;;;34.05;16.05;;;;;;;0.41;100.00;103454.34;5049247;28;20376;-75
2023/01/23 04:02:03;;;;;;;33.88;14.95;;;;;;;0.43;100.00;103448.13;5037071;28;20037;-75
2023/01/23 04:04:32;;;;;;;39.67;15.73;;;;;;;0.41;100.00;103428.44;5039638;28;20033;-76
2023/01/23 04:06:57;;;;;;;38.95;14.77;;;;;;;0.40;100.00;103428.44;5046195;28;20062;-76
2023/01/23 04:09:27;;;;;;;39.22;16.08;;;;;;;0.43;100.00;103444.56;5027998;28;20029;-75
2023/01/23 04:11:55;;;;;;;38.10;17.08;;;;;;;0.42;100.00;103451.69;5032062;28;20029;-76
2023/01/23 04:14:22;;;;;;;44.03;16.35;;;;;;;0.44;100.00;103446.34;5027689;28;20080;-76
2023/01/23 04:16:47;;;;;;;45.22;17.05;;;;;;;0.43;100.00;103444.56;5030023;28;20036;-76
2023/01/23 04:19:12;;;;;;;43.70;16.30;;;;;;;0.43;100.00;103441.88;5030148;28;20029;-75
2023/01/23 04:21:38;;;;;;;38.83;15.48;;;;;;;0.44;100.00;103444.56;5010964;28;20063;-76
2023/01/23 04:24:04;;;;;;;31.60;14.43;;;;;;;0.45;100.00;103442.78;5043844;28;20384;-76
2023/01/23 04:26:29;;;;;;;39.90;15.38;;;;;;;0.44;100.00;103441.88;5047639;28;20484;-76
2023/01/23 04:28:54;;;;;;;40.92;16.83;;;;;;;0.43;100.00;103441.88;5048564;28;20035;-76
2023/01/23 04:31:20;;;;;;;37.45;15.55;;;;;;;0.44;100.00;103446.34;5046642;28;20040;-76
2023/01/23 04:33:45;;;;;;;39.60;15.35;;;;;;;0.43;100.00;103444.56;5029259;28;20122;-76
2023/01/23 04:36:11;;;;;;;42.30;15.68;;;;;;;0.46;100.00;103457.97;5010711;28;20228;-76
2023/01/23 04:38:37;;;;;;;44.30;15.95;;;;;;;0.48;100.00;103458.91;5028368;28;20120;-76
2023/01/23 04:41:26;;;;;;;38.20;16.15;;;;;;;0.47;100.00;103452.66;5027773;28;20539;-76
2023/01/23 04:44:18;;;;;;;38.95;16.23;;;;;;;0.47;100.00;103451.75;5011342;28;20037;-76
2023/01/23 04:46:48;;;;;;;46.13;16.98;;;;;;;0.46;100.00;103449.94;5027053;28;20049;-76
2023/01/23 04:49:18;;;;;;;40.65;16.00;;;;;;;0.49;100.00;103461.56;5034397;28;20095;-76
2023/01/23 04:51:46;;;;;;;37.17;15.60;;;;;;;0.50;100.00;103462.47;5026924;28;20400;-76
2023/01/23 04:54:12;;;;;;;38.15;16.35;;;;;;;0.47;100.00;103465.13;5027726;28;20506;-77
2023/01/23 04:56:38;;;;;;;42.13;16.77;;;;;;;0.49;100.00;103466.03;5027740;28;20112;-77
2023/01/23 04:59:06;;;;;;;44.28;16.95;;;;;;;0.51;100.00;103469.63;5046521;28;20047;-76
2023/01/23 05:01:32;;;;;;;43.25;15.43;;;;;;;0.52;100.00;103475.91;5040628;28;20442;-77
2023/01/23 05:04:00;;;;;;;43.25;15.93;;;;;;;0.52;100.00;103479.47;5032857;28;20040;-77
2023/01/23 05:06:26;;;;;;;40.33;17.58;;;;;;;0.52;100.00;103471.44;5026329;28;20501;-77
2023/01/23 05:08:54;;;;;;;43.10;16.52;;;;;;;0.50;100.00;103463.38;5026827;28;20442;-76
2023/01/23 05:11:25;;;;;;;36.75;15.68;;;;;;;0.54;100.00;103469.66;5026933;28;20040;-76
2023/01/23 05:13:51;;;;;;;37.08;15.90;;;;;;;0.52;100.00;103471.44;5010139;28;20415;-76
2023/01/23 05:16:19;;;;;;;38.70;16.00;;;;;;;0.55;100.00;103467.88;5026884;28;20132;-76
2023/01/23 05:19:03;;;;;;;37.78;15.35;;;;;;;0.55;100.00;103476.81;5033958;28;20109;-77
2023/01/23 05:21:30;;;;;;;37.63;16.98;;;;;;;0.56;100.00;103481.31;5045976;28;20381;-77
2023/01/23 05:23:55;;;;;;;44.75;16.30;;;;;;;0.56;100.00;103477.72;5030035;28;20160;-77
2023/01/23 05:26:21;;;;;;;37.85;15.38;;;;;;;0.56;100.00;103478.63;5010238;28;20127;-76
2023/01/23 05:28:46;;;;;;;43.55;17.55;;;;;;;0.57;100.00;103485.78;5026115;28;20397;-77
2023/01/23 05:31:12;;;;;;;37.95;17.02;;;;;;;0.57;100.00;103490.25;5010847;28;20496;-76
2023/01/23 05:33:44;;;;;;;33.72;14.95;;;;;;;0.57;100.00;103485.78;5026386;28;20021;-77
2023/01/23 05:36:10;;;;;;;42.78;16.83;;;;;;;0.56;100.00;103492.03;5026107;28;20033;-76
2023/01/23 05:38:35;;;;;;;45.22;17.40;;;;;;;0.57;100.00;103483.09;5026241;28;20030;-77
2023/01/23 05:41:02;;;;;;;39.15;14.65;;;;;;;0.58;100.00;103486.69;5025990;28;20025;-76
2023/01/23 05:43:48;;;;;;;38.63;17.52;;;;;;;0.57;100.00;103488.47;5026040;28;20045;-77
2023/01/23 05:46:26;;;;;;;40.83;16.23;;;;;;;0.55;100.00;103478.59;5026577;28;20021;-76
2023/01/23 05:48:52;;;;;;;42.85;16.98;;;;;;;0.57;100.00;103491.13;5027445;28;20036;-77
2023/01/23 05:51:19;;;;;;;44.17;17.65;;;;;;;0.55;100.00;103487.53;5026005;28;20512;-76
2023/01/23 05:53:44;;;;;;;50.70;18.08;;;;;;;0.58;100.00;103497.38;5036875;28;20033;-77
2023/01/23 05:56:11;;;;;;;39.42;17.05;;;;;;;0.58;100.00;103492.03;5026733;28;20037;-76
2023/01/23 05:58:47;;;;;;;42.03;17.00;;;;;;;0.58;100.00;103486.69;5039880;28;20500;-76
2023/01/23 06:01:17;;;;;;;40.35;16.95;;;;;;;0.56;100.00;103492.03;5026488;28;20507;-76
2023/01/23 06:04:01;;;;;;;39.95;16.98;;;;;;;0.55;100.00;103494.66;5032968;28;20458;-76
2023/01/23 06:06:34;;;;;;;;;;;;;;;0.62;100.00;103505.47;5045422;28;20039;-77
2023/01/23 06:08:59;;;;;;;37.60;14.90;;;;;;;0.61;100.00;103501.00;5044861;28;19913;-77
2023/01/23 06:11:25;;;;;;;41.80;16.67;;;;;;;0.62;100.00;103504.59;5044091;28;20033;-76
2023/01/23 06:13:50;;;;;;;41.47;16.52;;;;;;;0.61;100.00;103509.03;5013173;28;20044;-77
2023/01/23 06:16:16;;;;;;;42.88;17.30;;;;;;;0.64;100.00;103503.72;5044978;28;20445;-76
2023/01/23 06:18:42;;;;;;;37.78;15.77;;;;;;;0.67;100.00;103517.16;5014037;28;20021;-76
2023/01/23 06:21:08;;;;;;;42.28;17.52;;;;;;;0.68;100.00;103515.38;5045002;28;20416;-76
2023/01/23 06:23:35;;;;;;;39.70;16.85;;;;;;;0.66;100.00;103510.00;5033105;28;20040;-76
2023/01/23 06:26:02;;;;;;;43.10;17.98;;;;;;;0.67;100.00;103511.78;5025568;28;20484;-76
2023/01/23 06:28:29;;;;;;;39.42;15.20;;;;;;;0.67;100.00;103511.78;5026217;28;20029;-76
2023/01/23 06:30:59;;;;;;;37.60;16.52;;;;;;;0.68;100.00;103518.03;5029097;28;20508;-78
2023/01/23 06:33:33;;;;;;;39.88;15.93;;;;;;;0.68;100.00;103520.72;5029930;28;20037;-76
2023/01/23 06:36:04;;;;;;;40.08;16.45;;;;;;;0.66;100.00;103522.50;5012750;28;20025;-76
2023/01/23 06:38:30;;;;;;;42.88;16.80;;;;;;;0.65;100.00;103515.31;5013386;28;20037;-76
2023/01/23 06:40:57;;;;;;;39.60;16.17;;;;;;;0.70;100.00;103524.31;5013255;28;20073;-76
2023/01/23 06:43:30;;;;;;;36.65;16.13;;;;;;;0.69;100.00;103520.72;5029768;28;20169;-76
2023/01/23 06:45:55;;;;;;;39.03;15.32;;;;;;;0.67;100.00;103506.44;5029039;28;20498;-76
2023/01/23 06:48:21;;;;;;;37.80;15.65;;;;;;;0.68;100.00;103512.69;5031016;28;20036;-76
2023/01/23 06:50:47;;;;;;;38.67;16.58;;;;;;;0.70;100.00;103513.59;5012465;28;20481;-76
2023/01/23 06:53:14;;;;;;;42.85;16.73;;;;;;;0.70;100.00;103518.94;5014057;28;20029;-76
2023/01/23 06:55:42;;;;;;;40.42;16.52;;;;;;;0.69;100.00;103517.16;5030209;28;20052;-76
2023/01/23 06:58:09;;;;;;;38.90;16.50;;;;;;;0.68;100.00;103523.41;5029632;28;20059;-75
2023/01/23 07:00:36;;;;;;;39.50;16.23;;;;;;;0.67;100.00;103526.97;5016990;28;20110;-76
2023/01/23 07:03:03;;;;;;;47.35;18.25;;;;;;;0.69;100.00;103531.44;5015412;28;20207;-76
2023/01/23 07:05:30;;;;;;;42.90;17.30;;;;;;;0.70;100.00;103521.63;5031046;28;20127;-76
2023/01/23 07:07:56;;;;;;;39.78;17.27;;;;;;;0.72;100.00;103536.84;5042738;28;20061;-76
2023/01/23 07:10:22;;;;;;;44.53;16.17;;;;;;;0.72;100.00;103533.28;5029131;28;20033;-76
2023/01/23 07:12:48;;;;;;;40.50;17.02;;;;;;;0.71;100.00;103528.81;5029177;28;20038;-77
2023/01/23 07:15:13;;;;;;;49.00;17.50;;;;;;;0.72;100.00;103533.28;5030377;28;20041;-78
2023/01/23 07:17:39;;;;;;;34.78;15.50;;;;;;;0.73;100.00;103535.06;5012899;28;20033;-76
2023/01/23 07:20:05;;;;;;;40.67;16.90;;;;;;;0.72;100.00;103534.16;5030433;28;20381;-76
2023/01/23 07:22:32;;;;;;;45.80;16.83;;;;;;;0.75;100.00;103541.34;5028152;28;20326;-76
2023/01/23 07:24:57;;;;;;;34.10;15.10;;;;;;;0.76;100.00;103548.50;5030492;28;20032;-75
2023/01/23 07:27:23;;;;;;;39.17;14.07;;;;;;;0.74;100.00;103548.47;5029118;28;20040;-76
2023/01/23 07:29:48;;;;;;;37.15;14.57;;;;;;;0.76;100.00;103548.50;5029837;28;20037;-76
2023/01/23 07:32:13;;;;;;;46.40;16.77;;;;;;;0.79;100.00;103561.91;5029093;28;20436;-78
2023/01/23 07:34:39;;;;;;;40.05;17.77;;;;;;;0.80;100.00;103560.16;5030574;28;20021;-77
2023/01/23 07:37:04;;;;;;;36.78;15.85;;;;;;;0.80;100.00;103562.84;5012180;28;20477;-77
2023/01/23 07:39:29;;;;;;;37.75;16.00;;;;;;;0.83;100.00;103562.88;5029215;28;20374;-76
2023/01/23 07:41:55;;;;;;;42.80;16.30;;;;;;;0.83;100.00;103563.75;5028602;28;20037;-76
2023/01/23 07:44:23;;;;;;;40.92;16.48;;;;;;;0.83;100.00;103565.53;5028389;28;20037;-76
2023/01/23 07:46:48;;;;;;;37.25;15.77;;;;;;;0.85;100.00;103571.84;5028878;28;20029;-76
2023/01/23 07:49:14;;;;;;;41.80;17.60;;;;;;;0.86;100.00;103576.31;5037446;28;20091;-78
2023/01/23 07:51:40;;;;;;;37.38;15.35;;;;;;;0.89;100.00;103571.00;5050373;28;20397;-76
2023/01/23 07:54:06;;;;;;;37.47;15.18;;;;;;;0.88;100.00;103570.06;5032593;28;20590;-76
2023/01/23 07:56:32;;;;;;;37.35;17.05;;;;;;;0.93;100.00;103580.84;5030438;28;20041;-76
2023/01/23 07:58:58;;;;;;;36.65;16.98;;;;;;;0.95;100.00;103584.47;5028063;28;20040;-76
2023/01/23 08:01:23;;;;;;;32.85;15.38;;;;;;;0.93;100.00;103580.84;5030099;28;20391;-76
2023/01/23 08:03:49;;;;;;;40.55;16.33;;;;;;;0.95;100.00;103584.47;5035968;28;20037;-76
2023/01/23 08:06:14;;;;;;;38.10;16.35;;;;;;;0.95;100.00;103584.47;5029356;28;20064;-76
2023/01/23 08:08:40;;;;;;;37.60;16.38;;;;;;;0.97;100.00;103582.69;5030768;28;20037;-76
2023/01/23 08:11:09;;;;;;;35.72;15.77;;;;;;;1.00;100.00;103580.03;5028739;28;20374;-77
2023/01/23 08:13:35;;;;;;;40.53;15.98;;;;;;;1.03;100.00;103582.78;5030194;28;20041;-76
2023/01/23 08:16:00;;;;;;;34.88;14.68;;;;;;;1.05;100.00;103582.78;5011661;28;20464;-77
2023/01/23 08:18:27;;;;;;;45.47;16.83;;;;;;;1.05;100.00;103585.47;5029426;28;20215;-76
2023/01/23 08:20:58;;;;;;;34.20;14.90;;;;;;;1.07;100.00;103595.31;5047828;28;20037;-77
2023/01/23 08:23:32;;;;;;;34.03;15.57;;;;;;;1.07;100.00;103592.63;5036375;28;20037;-76
2023/01/23 08:26:00;;;;;;;37.35;15.90;;;;;;;1.09;100.00;103595.34;5029460;28;20550;-79
2023/01/23 08:28:26;;;;;;;34.33;15.07;;;;;;;1.11;100.00;103602.50;5029729;28;20424;-77
2023/01/23 08:30:53;;;;;;;40.30;15.02;;;;;;;1.14;100.00;103596.28;5028279;28;20041;-77
2023/01/23 08:33:19;;;;;;;33.22;15.80;;;;;;;1.16;100.00;103602.53;5027995;28;20037;-77
2023/01/23 08:35:52;;;;;;;40.22;15.43;;;;;;;1.16;100.00;103600.75;5029312;28;20479;-77
2023/01/23 08:38:19;;;;;;;39.20;16.65;;;;;;;1.17;100.00;103599.91;5029832;28;20094;-76
2023/01/23 08:40:49;;;;;;;34.70;16.10;;;;;;;1.20;100.00;103607.06;5029232;28;20033;-77
2023/01/23 08:43:16;;;;;;;33.15;16.45;;;;;;;1.20;100.00;103601.72;5028483;28;20057;-78
2023/01/23 08:45:47;;;;;;;33.47;14.82;;;;;;;1.21;100.00;103609.78;5028592;28;20488;-77
2023/01/23 08:48:12;;;;;;;34.47;14.95;;;;;;;1.25;100.00;103608.91;5028891;28;20116;-77
2023/01/23 08:50:37;;;;;;;32.58;15.23;;;;;;;1.24;100.00;103603.53;5027999;28;20124;-77
2023/01/23 08:53:03;;;;;;;33.20;15.00;;;;;;;1.27;100.00;103606.25;5029486;28;20126;-77
2023/01/23 08:55:29;;;;;;;33.65;14.57;;;;;;;1.31;100.00;103609.88;5029126;28;20033;-76
2023/01/23 08:57:54;;;;;;;37.35;15.65;;;;;;;1.36;100.00;103616.19;5030018;28;20116;-77
2023/01/23 09:00:20;;;;;;;37.67;15.10;;;;;;;1.37;100.00;103607.25;5028205;28;20041;-77
2023/01/23 09:02:46;;;;;;;30.80;14.45;;;;;;;1.40;100.00;103613.56;5031701;28;20044;-77
2023/01/23 09:05:12;;;;;;;40.42;17.52;;;;;;;1.42;100.00;103605.53;5032858;28;20045;-77
2023/01/23 09:07:37;;;;;;;35.17;15.60;;;;;;;1.45;100.00;103611.81;5029050;28;20523;-77
2023/01/23 09:10:04;;;;;;;39.42;16.05;;;;;;;1.50;100.00;103618.13;5029591;28;20468;-77
2023/01/23 09:12:31;;;;;;;32.20;15.48;;;;;;;1.54;100.00;103613.69;5027939;28;20030;-77
2023/01/23 09:14:57;;;;;;;33.33;14.63;;;;;;;1.56;100.00;103613.69;5027681;28;20030;-79
2023/01/23 09:17:22;;;;;;;29.42;14.50;;;;;;;1.61;100.00;103630.75;5011600;28;20037;-78
2023/01/23 09:19:48;;;;;;;34.67;15.32;;;;;;;1.64;100.00;103615.56;5029498;28;20051;-77
2023/01/23 09:22:13;;;;;;;36.53;13.63;;;;;;;1.68;100.00;103606.69;5048055;28;20123;-77
2023/01/23 09:24:38;;;;;;;33.55;14.55;;;;;;;1.72;100.00;103618.31;5028095;28;20436;-77
2023/01/23 09:27:04;;;;;;;38.72;15.27;;;;;;;1.71;100.00;103595.06;5027817;28;20124;-76
2023/01/23 09:29:29;;;;;;;35.63;15.90;;;;;;;1.79;100.00;103606.75;5027721;28;20076;-76
2023/01/23 09:31:57;;;;;;;32.53;15.20;;;;;;;1.85;100.00;103604.13;5030521;28;20044;-78
2023/01/23 09:34:22;;;;;;;34.25;14.40;;;;;;;1.87;100.00;103606.84;5036167;28;20040;-76
2023/01/23 09:36:48;;;;;;;36.95;14.80;;;;;;;1.91;100.00;103605.94;5028597;28;20049;-77
2023/01/23 09:39:13;;;;;;;32.00;14.75;;;;;;;1.93;100.00;103606.88;5044442;28;20014;-80
2023/01/23 09:41:40;;;;;;;32.17;15.43;;;;;;;1.95;100.00;103605.97;5049054;28;20094;-77
2023/01/23 09:44:19;;;;;;;34.08;15.02;;;;;;;1.95;100.00;103611.34;5044962;28;20037;-76
2023/01/23 09:47:01;;;;;;;31.13;13.48;;;;;;;1.97;100.00;103614.06;5029007;28;20045;-76
2023/01/23 09:49:37;;;;;;;30.83;12.52;;;;;;;2.02;100.00;103629.31;5027136;28;20033;-76
2023/01/23 09:52:12;;;;;;;30.65;14.05;;;;;;;2.03;100.00;103633.78;5027136;28;20039;-77
2023/01/23 09:54:43;;;;;;;36.03;14.30;;;;;;;2.05;100.00;103628.44;5027623;28;20041;-76
2023/01/23 09:57:42;;;;;;;26.70;12.73;;;;;;;2.06;100.00;103638.31;5027905;28;20582;-76
2023/01/23 10:00:16;;;;;;;29.60;14.40;;;;;;;2.06;100.00;103638.31;5011309;28;20069;-76
2023/01/23 10:02:43;;;;;;;28.65;13.82;;;;;;;2.07;100.00;103633.84;5031381;28;20037;-77
2023/01/23 10:05:14;;;;;;;26.65;12.60;;;;;;;2.11;100.00;103641.03;5036997;28;20069;-76
2023/01/23 10:08:04;;;;;;;30.90;13.10;;;;;;;2.11;100.00;103630.28;5020585;28;20033;-76
2023/01/23 10:10:48;;;;;;;35.05;14.77;;;;;;;2.13;100.00;103639.25;5055041;28;20037;-76
2023/01/23 10:13:55;;;;;;;33.40;13.00;;;;;;;2.12;100.00;103624.91;5054162;28;20036;-76
2023/01/23 10:16:41;;;;;;;29.45;12.82;;;;;;;2.22;100.00;103633.94;5053502;28;20045;-79
2023/01/23 10:19:28;;;;;;;31.75;13.45;;;;;;;2.22;100.00;103632.16;5040161;28;20090;-76
2023/01/23 10:22:06;;;;;;;32.38;12.57;;;;;;;2.26;100.00;103635.75;5034442;28;20120;-76
2023/01/23 10:24:50;;;;;;;28.90;12.90;;;;;;;2.26;100.00;103636.66;5033399;28;20554;-76
2023/01/23 10:27:22;;;;;;;34.33;15.05;;;;;;;2.21;100.00;103630.34;5033683;28;20099;-75
2023/01/23 10:29:51;;;;;;;28.95;13.45;;;;;;;2.24;100.00;103641.13;5035075;28;20034;-76
2023/01/23 10:32:25;;;;;;;32.20;13.68;;;;;;;2.27;100.00;103626.81;5034682;28;20029;-76
2023/01/23 10:35:04;;;;;;;29.75;13.57;;;;;;;2.28;100.00;103632.22;5035119;28;20037;-76
2023/01/23 10:37:49;;;;;;;27.98;13.57;;;;;;;2.32;100.00;103626.84;5034137;28;20037;-76
2023/01/23 10:41:12;;;;;;;30.50;13.27;;;;;;;2.31;100.00;103631.31;5034611;28;20033;-75
2023/01/23 10:43:12;;;;;;;30.52;14.85;;;;;;;2.32;100.00;103633.09;5034617;28;20061;-75
2023/01/23 10:45:39;;;;;;;28.65;14.52;;;;;;;2.35;100.00;103634.94;5036042;28;20036;-75
2023/01/23 10:48:39;;;;;;;28.30;13.70;;;;;;;2.35;100.00;103627.78;5033846;28;20045;-75
2023/01/23 10:51:38;;;;;;;29.33;14.43;;;;;;;2.39;100.00;103628.69;5032843;28;20167;-75
2023/01/23 10:54:07;;;;;;;28.70;12.93;;;;;;;2.39;100.00;103623.31;5033445;28;20049;-75
2023/01/23 10:56:36;;;;;;;26.92;13.70;;;;;;;2.42;100.00;103626.00;5034725;28;20048;-78
2023/01/23 10:59:04;;;;;;;29.83;14.10;;;;;;;2.45;100.00;103626.94;5032904;28;20041;-77
2023/01/23 11:01:34;;;;;;;28.00;13.50;;;;;;;2.45;100.00;103621.56;5022591;28;20462;-75
2023/01/23 11:04:34;;;;;;;24.58;12.80;;;;;;;2.50;100.00;103622.47;5034954;28;20119;-75
2023/01/23 11:07:07;;;;;;;29.05;13.02;;;;;;;2.51;100.00;103618.00;5026695;28;20127;-75
2023/01/23 11:09:44;;;;;;;28.23;13.82;;;;;;;2.52;100.00;103620.72;5034449;28;20116;-75
2023/01/23 11:12:15;;;;;;;29.42;14.10;;;;;;;2.54;100.00;103621.63;5033826;28;20077;-75
2023/01/23 11:14:40;;;;;;;24.15;12.82;;;;;;;2.57;100.00;103626.13;5033506;28;20377;-75
2023/01/23 11:17:31;;;;;;;27.17;12.75;;;;;;;2.60;100.00;103625.22;5041813;28;20025;-77
2023/01/23 11:19:58;;;;;;;26.92;13.48;;;;;;;2.62;100.00;103616.28;5035052;28;20069;-75
2023/01/23 11:22:35;;;;;;;26.05;13.18;;;;;;;2.66;100.00;103623.47;5030831;28;20035;-75
2023/01/23 11:25:25;;;;;;;28.60;13.30;;;;;;;2.67;100.00;103619.00;5031224;28;20067;-75
2023/01/23 11:27:59;;;;;;;28.42;13.25;;;;;;;2.65;100.00;103624.34;5031180;28;20084;-75